Pazifik — ZDKS7 — position and weather

sailwx.info

Track history (hours):
 
Tides and Currents Weather Stations Pressure Air Temp Water Temp Dewpoint Dewpoint Depression Visibility Wind Speed Wind Dir Waves Ship Positions

Pazifik

Last reported at 2016-Jul-24 05:33 UTC. Time now 2016-Jul-27 23:00 UTC.
Position N 27°31' W 117°41'.

Length 205 m.

Type: Ship (hazmat cat A). MMSI: 236111796.

Date/timePositionNaut miles runAvg speedWind from/ knotsBaromVisibWave heightAir tempDewpointWater temp
2016-Jul-24 05:33N 27°31' W 117°41'3316.3
2016-Jul-24 03:31N 27°51' W 118°10'1616.5
2016-Jul-24 02:33N 28°01' W 118°24'1716.4
2016-Jul-24 01:32N 28°11' W 118°39'3716.4
2016-Jul-23 23:18N 28°35' W 119°12'2016.5
2016-Jul-23 22:06N 28°47' W 119°29'1116.3
2016-Jul-23 21:26N 28°54' W 119°39'1416.4
2016-Jul-23 20:34N 29°03' W 119°52'2516.5
2016-Jul-23 19:04N 29°19' W 120°13'2516.4
2016-Jul-23 17:32N 29°35' W 120°36'1616.3
2016-Jul-23 16:33N 29°44' W 120°50'1616.3
2016-Jul-23 15:33N 29°54' W 121°05'1616.4
2016-Jul-23 14:33N 30°05' W 121°20'1616.5
2016-Jul-23 13:33N 30°15' W 121°35'1816.5
2016-Jul-23 12:30N 30°26' W 121°50'1516.4
2016-Jul-23 11:33N 30°36' W 122°04'1616.2
2016-Jul-23 10:33N 30°46' W 122°19'1616.1
2016-Jul-23 09:33N 30°56' W 122°34'1616.2
2016-Jul-23 08:33N 31°06' W 122°48'1616.1
2016-Jul-23 07:33N 31°16' W 123°03'1616.2
2016-Jul-23 06:33N 31°26' W 123°18'3316.3
2016-Jul-23 04:32N 31°47' W 123°48'1616.3
2016-Jul-23 03:33N 31°56' W 124°03'1616.2
2016-Jul-23 02:34N 32°07' W 124°18'1716.6
2016-Jul-23 01:33N 32°17' W 124°33'1716.6
2016-Jul-23 00:33N 32°28' W 124°48'1716.6
2016-Jul-22 23:33N 32°38' W 125°04'1716.6
2016-Jul-22 22:33N 32°48' W 125°19'1716.5
2016-Jul-22 21:33N 32°59' W 125°35'1616.5
2016-Jul-22 20:33N 33°09' W 125°50'1616.4
2016-Jul-22 19:33N 33°19' W 126°05'1616.2
2016-Jul-22 18:33N 33°30' W 126°20'1515.5
2016-Jul-22 17:33N 33°39' W 126°35'1414.0
2016-Jul-22 16:33N 33°48' W 126°48'5116.1
2016-Jul-22 13:22N 34°20' W 127°36'  
Track history (hours):
 
Tides and Currents Weather Stations Pressure Air Temp Water Temp Dewpoint Dewpoint Depression Visibility Wind Speed Wind Dir Waves Ship Positions

Pazifik

Last reported at 2016-Jul-24 05:33 UTC. Time now 2016-Jul-27 23:00 UTC.
Position N 27°31' W 117°41'.

Length 205 m.

Type: Ship (hazmat cat A). MMSI: 236111796.

Date/timePositionNaut miles runAvg speedWind from/ knotsBaromVisibWave heightAir tempDewpointWater temp
2016-Jul-24 05:33N 27°31' W 117°41'3316.3
2016-Jul-24 03:31N 27°51' W 118°10'1616.5
2016-Jul-24 02:33N 28°01' W 118°24'1716.4
2016-Jul-24 01:32N 28°11' W 118°39'3716.4
2016-Jul-23 23:18N 28°35' W 119°12'2016.5
2016-Jul-23 22:06N 28°47' W 119°29'1116.3
2016-Jul-23 21:26N 28°54' W 119°39'1416.4
2016-Jul-23 20:34N 29°03' W 119°52'2516.5
2016-Jul-23 19:04N 29°19' W 120°13'2516.4
2016-Jul-23 17:32N 29°35' W 120°36'1616.3
2016-Jul-23 16:33N 29°44' W 120°50'1616.3
2016-Jul-23 15:33N 29°54' W 121°05'1616.4
2016-Jul-23 14:33N 30°05' W 121°20'1616.5
2016-Jul-23 13:33N 30°15' W 121°35'1816.5
2016-Jul-23 12:30N 30°26' W 121°50'1516.4
2016-Jul-23 11:33N 30°36' W 122°04'1616.2
2016-Jul-23 10:33N 30°46' W 122°19'1616.1
2016-Jul-23 09:33N 30°56' W 122°34'1616.2
2016-Jul-23 08:33N 31°06' W 122°48'1616.1
2016-Jul-23 07:33N 31°16' W 123°03'1616.2
2016-Jul-23 06:33N 31°26' W 123°18'3316.3
2016-Jul-23 04:32N 31°47' W 123°48'1616.3
2016-Jul-23 03:33N 31°56' W 124°03'1616.2
2016-Jul-23 02:34N 32°07' W 124°18'1716.6
2016-Jul-23 01:33N 32°17' W 124°33'1716.6
2016-Jul-23 00:33N 32°28' W 124°48'1716.6
2016-Jul-22 23:33N 32°38' W 125°04'1716.6
2016-Jul-22 22:33N 32°48' W 125°19'1716.5
2016-Jul-22 21:33N 32°59' W 125°35'1616.5
2016-Jul-22 20:33N 33°09' W 125°50'1616.4
2016-Jul-22 19:33N 33°19' W 126°05'1616.2
2016-Jul-22 18:33N 33°30' W 126°20'1515.5
2016-Jul-22 17:33N 33°39' W 126°35'1414.0
2016-Jul-22 16:33N 33°48' W 126°48'5116.1
2016-Jul-22 13:22N 34°20' W 127°36'  

Dump ship's entire track history